Crystal Falls, MI (49920)

9:05 AM CST on December 05, 2016 (GMT -0600)
Bates Tower | | Change Station

Elev 1765 ft 46.10 °N, 88.54 °W | Updated 15 minutes ago

Overcast
Overcast
31.1 °F
Feels Like 25 °F
N
6.0
Wind Variable Wind from WSW
Gusts 14.0 mph

Today
High -- | Low -- °F
--% Chance of Precip.
Yesterday
High -- | Low -- °F
Precip. -- in
Pressure 29.86 in
Visibility 10.0 miles
Clouds Overcast 3200 ft
Windchill 25 °F
Dew Point 29 °F
Humidity 93%
Rainfall 0.00 in
Snow Depth Not available.
7:20 AM 4:08 PM
Waxing Crescent, 32% visible
METAR KIMT 051454Z AUTO 25008KT 10SM OVC032 01/M03 A2982 RMK AO2 SLP112 T00111028 53022
Pressure 29.86 in
Visibility 10.0 miles
Clouds Overcast 3200 ft
Windchill 25 °F
Dew Point 29 °F
Humidity 93%
Rainfall 0.00 in
Snow Depth Not available.
7:20 AM 4:08 PM
Waxing Crescent, 32% visible
METAR KIMT 051454Z AUTO 25008KT 10SM OVC032 01/M03 A2982 RMK AO2 SLP112 T00111028 53022

10-Day Weather Forecast

Almanac

Astronomy

Dec. 05, 2016 Rise Set
Actual Time
Civil Twilight
Nautical Twilight
Astronomical Twilight
Moon
Length of Visible Light
Length of Day
Tomorrow will be .
, % of the Moon is Illuminated

Today's Extremes

State Highs State Lows

Community

WunderPhotos

Upload Photos

1,955,787 photos uploaded!

WunderBlog® & News

Nearby

Air Quality

  Air Quality AQ Index Pollutant
Not available.

Snow Depth

Station Depth Elevation

Earthquake Activity

City Distance Mag. Time & Date
Minimum magnitude displayed is 2.5.

Coastal Water Temperatures

Place Temperature

Stations

Nearby Weather Stations

Station Location Temp. Windchill Dew Point Humidity Wind Precip. Elev Updated Type
                   

Watches & Warnings

There are currently no watches in effect.